CheckWX is a tool to help pilots better visualize weather data.  It is not intended as a substitute for an official pre-flight weather briefing.

07:14:18 UTC

ENRO METAR
Røros Airport
Røros, Norway
Current

24 mins ago

ENRO 210650Z 09004KT 060V130 9999 FEW034 SCT060 BKN090 13/09 Q1014
Observed
May-21 @ 06:50 UTC
Wind
  • 090° at 4 KTS
Visibility
10,000+ meters
Flight Rules
VFR
Cloud Levels
  • Few at 3,400' AGL
  • Scattered at 6,000' AGL
  • Broken at 9,000' AGL
Temperature
13°C / 55°F
Dewpoint
C / 48°F
Humidity
77%
Altimeter
29.94" Hg
Pressure
1013.92 hPa
Previous

54 mins ago

ENRO 210620Z VRB01KT 9999 FEW028 BKN056 12/09 Q1014
Observed
May-21 @ 06:20 UTC
Wind
  • Variable at 1 KTS
Visibility
10,000+ meters
Flight Rules
VFR
Cloud Levels
  • Few at 2,800' AGL
  • Broken at 5,600' AGL
Temperature
12°C / 54°F
Dewpoint
C / 48°F
Humidity
82%
Altimeter
29.94" Hg
Pressure
1013.92 hPa
Previous

1 hour ago

ENRO 210550Z VRB01KT 9999 SCT042 BKN092 11/08 Q1014
Observed
May-21 @ 05:50 UTC
Wind
  • Variable at 1 KTS
Visibility
10,000+ meters
Flight Rules
VFR
Cloud Levels
  • Scattered at 4,200' AGL
  • Broken at 9,200' AGL
Temperature
11°C / 52°F
Dewpoint
C / 46°F
Humidity
82%
Altimeter
29.94" Hg
Pressure
1013.92 hPa